createdAt,value
2023-04-16T00:02:01.804Z,101526.09
2023-04-16T00:04:28.923Z,101528.53
2023-04-16T00:06:55.425Z,101526.41
2023-04-16T00:09:22.060Z,101523.84
2023-04-16T00:11:48.719Z,101527.03
2023-04-16T00:14:15.193Z,101528.41
2023-04-16T00:16:41.775Z,101526.09
2023-04-16T00:19:08.488Z,101526.81
2023-04-16T00:21:38.164Z,101527.47
2023-04-16T00:24:04.517Z,101527.69
2023-04-16T00:26:31.008Z,101521.31
2023-04-16T00:28:57.643Z,101524.47
2023-04-16T00:31:28.978Z,101523.75
2023-04-16T00:33:55.915Z,101520.47
2023-04-16T00:36:27.069Z,101528.53
2023-04-16T00:38:53.618Z,101525.41
2023-04-16T00:41:19.968Z,101522.25
2023-04-16T00:43:46.998Z,101518.34
2023-04-16T00:46:13.873Z,101519.56
2023-04-16T00:48:41.280Z,101519.44
2023-04-16T00:51:08.746Z,101515.25
2023-04-16T00:53:35.731Z,101518.31
2023-04-16T00:56:03.005Z,101516.50
2023-04-16T00:58:29.828Z,101516.31
2023-04-16T01:00:58.188Z,101513.28
2023-04-16T01:03:27.957Z,101524.16
2023-04-16T01:05:55.677Z,101514.75
2023-04-16T01:08:23.097Z,101519.16
2023-04-16T01:10:49.712Z,101517.81
2023-04-16T01:13:16.206Z,101519.03
2023-04-16T01:15:42.753Z,101525.13
2023-04-16T01:18:19.321Z,101528.56
2023-04-16T01:20:46.726Z,101525.97
2023-04-16T01:23:13.585Z,101524.75
2023-04-16T01:25:40.436Z,101527.16
2023-04-16T01:28:07.525Z,101530.81
2023-04-16T01:30:34.097Z,101526.50
2023-04-16T01:33:01.905Z,101522.41
2023-04-16T01:35:29.530Z,101521.13
2023-04-16T01:37:55.950Z,101531.44
2023-04-16T01:40:22.453Z,101534.50
2023-04-16T01:42:49.087Z,101530.91
2023-04-16T01:45:15.984Z,101536.50
2023-04-16T01:47:42.829Z,101538.09
2023-04-16T01:50:10.668Z,101544.91
2023-04-16T01:52:38.112Z,101550.00
2023-04-16T01:55:04.733Z,101550.06
2023-04-16T01:57:31.391Z,101545.81
2023-04-16T01:59:57.928Z,101543.56
2023-04-16T02:02:28.453Z,101544.31
2023-04-16T02:04:56.369Z,101545.03
2023-04-16T02:07:23.132Z,101553.81
2023-04-16T02:09:51.141Z,101549.66
2023-04-16T02:12:18.725Z,101542.22
2023-04-16T02:14:45.042Z,101555.47
2023-04-16T02:17:12.269Z,101545.47
2023-04-16T02:19:39.141Z,101552.56
2023-04-16T02:22:05.678Z,101559.25
2023-04-16T02:24:32.073Z,101561.78
2023-04-16T02:26:58.705Z,101563.56
2023-04-16T02:29:25.334Z,101560.88
2023-04-16T02:31:51.868Z,101569.38
2023-04-16T02:34:19.194Z,101561.78
2023-04-16T02:36:45.772Z,101562.19
2023-04-16T02:39:12.369Z,101559.28
2023-04-16T02:41:38.841Z,101560.66
2023-04-16T02:44:05.599Z,101561.50
2023-04-16T02:46:32.088Z,101564.00
2023-04-16T02:48:58.383Z,101563.81
2023-04-16T02:51:24.898Z,101555.00
2023-04-16T02:53:51.670Z,101563.16
2023-04-16T02:56:18.133Z,101555.97
2023-04-16T02:58:44.596Z,101557.69
2023-04-16T03:01:11.186Z,101553.09
2023-04-16T03:03:38.074Z,101561.91
2023-04-16T03:06:04.646Z,101558.41
2023-04-16T03:08:31.256Z,101553.31
2023-04-16T03:10:57.855Z,101547.91
2023-04-16T03:13:24.592Z,101563.69
2023-04-16T03:15:51.395Z,101558.88
2023-04-16T03:18:17.975Z,101568.25
2023-04-16T03:20:44.655Z,101577.25
2023-04-16T03:23:11.191Z,101575.81
2023-04-16T03:25:41.265Z,101570.28
2023-04-16T03:28:07.746Z,101568.00
2023-04-16T03:30:34.136Z,101567.66
2023-04-16T03:33:00.708Z,101565.41
2023-04-16T03:35:29.341Z,101571.50
2023-04-16T03:37:55.872Z,101568.91
2023-04-16T03:40:22.567Z,101577.09
2023-04-16T03:42:48.975Z,101566.00
2023-04-16T03:45:16.593Z,101575.00
2023-04-16T03:47:43.851Z,101570.75
2023-04-16T03:50:12.156Z,101580.84
2023-04-16T03:52:38.740Z,101586.72
2023-04-16T03:55:05.354Z,101581.22
2023-04-16T03:57:32.030Z,101576.13
2023-04-16T03:59:58.661Z,101573.63
2023-04-16T04:02:25.597Z,101580.34
2023-04-16T04:04:53.723Z,101579.38
2023-04-16T04:07:20.433Z,101587.53
2023-04-16T04:09:47.351Z,101594.94
2023-04-16T04:12:13.817Z,101578.13
2023-04-16T04:14:40.330Z,101586.75
2023-04-16T04:17:07.093Z,101588.19
2023-04-16T04:19:33.903Z,101583.53
2023-04-16T04:22:00.495Z,101586.94
2023-04-16T04:24:27.630Z,101584.78
2023-04-16T04:26:54.533Z,101591.06
2023-04-16T04:29:21.449Z,101593.84
2023-04-16T04:31:48.880Z,101588.50
2023-04-16T04:34:16.447Z,101593.34
2023-04-16T04:36:43.760Z,101592.84
2023-04-16T04:39:10.912Z,101597.69
2023-04-16T04:41:39.094Z,101593.56
2023-04-16T04:44:07.080Z,101602.00
2023-04-16T04:46:34.645Z,101605.38
2023-04-16T04:49:01.290Z,101607.44
2023-04-16T04:51:29.175Z,101601.19
2023-04-16T04:53:58.377Z,101609.75
2023-04-16T04:56:24.837Z,101608.44
2023-04-16T04:58:51.397Z,101608.97
2023-04-16T05:01:18.559Z,101613.94
2023-04-16T05:03:46.346Z,101615.28
2023-04-16T05:06:13.190Z,101619.44
2023-04-16T05:08:39.920Z,101621.25
2023-04-16T05:11:06.874Z,101616.31
2023-04-16T05:13:33.628Z,101617.06
2023-04-16T05:16:03.138Z,101617.66
2023-04-16T05:18:30.441Z,101619.56
2023-04-16T05:20:59.907Z,101622.91
2023-04-16T05:23:27.194Z,101619.84
2023-04-16T05:25:55.145Z,101622.81
2023-04-16T05:28:21.894Z,101637.34
2023-04-16T05:30:48.450Z,101631.91
2023-04-16T05:33:15.540Z,101637.56
2023-04-16T05:35:43.325Z,101641.84
2023-04-16T05:38:10.680Z,101643.38
2023-04-16T05:40:37.900Z,101648.53
2023-04-16T05:43:05.733Z,101648.97
2023-04-16T05:45:39.854Z,101653.00
2023-04-16T05:48:07.144Z,101658.66
2023-04-16T05:50:34.545Z,101661.72
2023-04-16T05:53:01.468Z,101657.91
2023-04-16T05:55:28.198Z,101654.84
2023-04-16T05:57:55.021Z,101645.53
2023-04-16T06:00:21.593Z,101657.72
2023-04-16T06:02:51.024Z,101657.09
2023-04-16T06:05:17.901Z,101662.09
2023-04-16T06:07:47.161Z,101660.78
2023-04-16T06:10:15.820Z,101667.59
2023-04-16T06:12:42.795Z,101670.03
2023-04-16T06:15:11.280Z,101669.78
2023-04-16T06:17:39.291Z,101669.13
2023-04-16T06:20:06.308Z,101679.47
2023-04-16T06:22:34.368Z,101683.13
2023-04-16T06:25:01.302Z,101686.84
2023-04-16T06:27:27.845Z,101675.09
2023-04-16T06:29:54.378Z,101675.44
2023-04-16T06:32:21.675Z,101678.50
2023-04-16T06:34:48.329Z,101686.31
2023-04-16T06:37:14.887Z,101690.31
2023-04-16T06:39:41.407Z,101691.19
2023-04-16T06:42:07.924Z,101694.34
2023-04-16T06:44:35.563Z,101694.28
2023-04-16T06:47:02.180Z,101688.16
2023-04-16T06:49:28.888Z,101695.25
2023-04-16T06:51:55.384Z,101692.81
2023-04-16T06:54:21.961Z,101693.03
2023-04-16T06:56:48.622Z,101699.50
2023-04-16T06:59:15.808Z,101703.41
2023-04-16T07:01:42.677Z,101710.19
2023-04-16T07:04:11.799Z,101700.25
2023-04-16T07:06:38.402Z,101710.50
2023-04-16T07:09:05.064Z,101705.59
2023-04-16T07:11:32.527Z,101708.88
2023-04-16T07:13:59.042Z,101707.22
2023-04-16T07:16:25.762Z,101711.19
2023-04-16T07:18:52.479Z,101712.22
2023-04-16T07:21:18.971Z,101713.06
2023-04-16T07:23:45.466Z,101730.81
2023-04-16T07:26:11.988Z,101714.78
2023-04-16T07:28:39.115Z,101730.38
2023-04-16T07:31:06.044Z,101729.63
2023-04-16T07:33:32.878Z,101733.91
2023-04-16T07:36:00.049Z,101725.75
2023-04-16T07:38:26.708Z,101727.97
2023-04-16T07:40:53.374Z,101728.81
2023-04-16T07:43:20.004Z,101731.03
2023-04-16T07:45:46.413Z,101734.78
2023-04-16T07:48:13.141Z,101737.25
2023-04-16T07:50:40.009Z,101740.75
2023-04-16T07:53:07.605Z,101746.09
2023-04-16T07:55:34.855Z,101748.13
2023-04-16T07:58:04.128Z,101752.88
2023-04-16T08:00:30.944Z,101749.09
2023-04-16T08:02:57.557Z,101749.53
2023-04-16T08:05:24.417Z,101760.66
2023-04-16T08:07:51.081Z,101758.06
2023-04-16T08:10:17.736Z,101749.47
2023-04-16T08:12:45.149Z,101751.97
2023-04-16T08:15:12.048Z,101766.16
2023-04-16T08:17:39.262Z,101763.59
2023-04-16T08:20:06.702Z,101767.78
2023-04-16T08:22:33.895Z,101760.25
2023-04-16T08:25:00.614Z,101765.84
2023-04-16T08:27:27.046Z,101779.34
2023-04-16T08:29:53.821Z,101774.50
2023-04-16T08:32:21.860Z,101779.72
2023-04-16T08:34:48.408Z,101777.09
2023-04-16T08:37:15.662Z,101781.72
2023-04-16T08:39:43.934Z,101779.63
2023-04-16T08:42:16.060Z,101793.56
2023-04-16T08:44:44.446Z,101792.56
2023-04-16T08:47:12.819Z,101794.81
2023-04-16T08:49:44.041Z,101788.75
2023-04-16T08:52:14.956Z,101793.66
2023-04-16T08:54:59.684Z,101794.38
2023-04-16T08:57:30.055Z,101793.94
2023-04-16T08:59:57.199Z,101805.06
2023-04-16T09:02:26.574Z,101809.41
2023-04-16T09:04:55.535Z,101804.66
2023-04-16T09:07:22.276Z,101808.91
2023-04-16T09:09:50.527Z,101810.63
2023-04-16T09:12:17.440Z,101809.41
2023-04-16T09:14:48.364Z,101811.06
2023-04-16T09:17:16.308Z,101820.38
2023-04-16T09:19:42.961Z,101810.63
2023-04-16T09:22:09.550Z,101810.28
2023-04-16T09:24:38.421Z,101811.28
2023-04-16T09:27:06.434Z,101815.81
2023-04-16T09:29:42.778Z,101818.66
2023-04-16T09:32:10.826Z,101821.88
2023-04-16T09:34:57.718Z,101826.16
2023-04-16T09:37:26.759Z,101830.09
2023-04-16T09:39:59.051Z,101833.13
2023-04-16T09:42:28.052Z,101843.63
2023-04-16T09:44:59.918Z,101839.34
2023-04-16T09:47:42.479Z,101837.00
2023-04-16T09:50:11.945Z,101840.22
2023-04-16T09:52:39.787Z,101842.94
2023-04-16T09:55:07.687Z,101855.75
2023-04-16T09:57:38.001Z,101856.09
2023-04-16T10:00:06.929Z,101861.09
2023-04-16T10:02:34.991Z,101856.09
2023-04-16T10:05:05.613Z,101859.31
2023-04-16T10:07:34.135Z,101855.16
2023-04-16T10:10:00.746Z,101863.44
2023-04-16T10:12:29.218Z,101863.94
2023-04-16T10:14:56.055Z,101860.19
2023-04-16T10:17:23.995Z,101867.41
2023-04-16T10:19:51.665Z,101870.47
2023-04-16T10:22:18.192Z,101873.50
2023-04-16T10:24:45.173Z,101867.78
2023-04-16T10:27:12.291Z,101876.31
2023-04-16T10:29:39.680Z,101877.50
2023-04-16T10:32:06.692Z,101874.34
2023-04-16T10:34:33.623Z,101879.94
2023-04-16T10:37:00.686Z,101871.19
2023-04-16T10:39:30.482Z,101872.63
2023-04-16T10:42:10.407Z,101874.97
2023-04-16T10:44:37.711Z,101887.84
2023-04-16T10:47:11.051Z,101871.94
2023-04-16T10:49:37.479Z,101882.16
2023-04-16T10:52:15.225Z,101890.53
2023-04-16T10:54:46.711Z,101887.88
2023-04-16T10:57:17.906Z,101886.34
2023-04-16T10:59:47.399Z,101893.56
2023-04-16T11:02:16.153Z,101893.03
2023-04-16T11:04:46.036Z,101898.06
2023-04-16T11:07:22.454Z,101903.88
2023-04-16T11:09:55.835Z,101902.44
2023-04-16T11:12:31.651Z,101894.28
2023-04-16T11:14:59.910Z,101903.13
2023-04-16T11:17:33.531Z,101902.59
2023-04-16T11:20:00.038Z,101901.59
2023-04-16T11:22:27.180Z,101904.50
2023-04-16T11:24:58.290Z,101906.63
2023-04-16T11:27:27.936Z,101902.16
2023-04-16T11:30:01.970Z,101904.28
2023-04-16T11:32:32.157Z,101900.78
2023-04-16T11:34:59.992Z,101913.56
2023-04-16T11:37:36.869Z,101916.31
2023-04-16T11:40:07.048Z,101911.16
2023-04-16T11:42:34.060Z,101915.66
2023-04-16T11:45:06.177Z,101915.78
2023-04-16T11:47:35.570Z,101908.94
2023-04-16T11:50:22.386Z,101916.72
2023-04-16T11:52:49.781Z,101913.28
2023-04-16T11:55:19.593Z,101909.34
2023-04-16T11:57:48.065Z,101916.31
2023-04-16T12:00:15.291Z,101918.16
2023-04-16T12:02:46.074Z,101922.47
2023-04-16T12:05:31.327Z,101920.75
2023-04-16T12:08:03.315Z,101926.78
2023-04-16T12:10:30.653Z,101925.84
2023-04-16T12:13:13.380Z,101919.78
2023-04-16T12:15:46.251Z,101918.03
2023-04-16T12:18:12.946Z,101916.63
2023-04-16T12:20:49.327Z,101917.69
2023-04-16T12:23:23.553Z,101913.63
2023-04-16T12:25:53.302Z,101917.16
2023-04-16T12:28:30.032Z,101917.81
2023-04-16T12:30:58.153Z,101923.06
2023-04-16T12:33:25.182Z,101920.81
2023-04-16T12:35:51.912Z,101927.97
2023-04-16T12:38:20.781Z,101926.38
2023-04-16T12:40:48.571Z,101920.34
2023-04-16T12:43:15.160Z,101933.41
2023-04-16T12:45:42.094Z,101929.31
2023-04-16T12:48:08.605Z,101923.34
2023-04-16T12:50:35.291Z,101924.81
2023-04-16T12:53:02.303Z,101926.63
2023-04-16T12:55:31.868Z,101931.53
2023-04-16T12:57:58.678Z,101932.72
2023-04-16T13:00:28.180Z,101934.41
2023-04-16T13:02:54.854Z,101936.16
2023-04-16T13:05:21.941Z,101928.03
2023-04-16T13:07:48.561Z,101935.22
2023-04-16T13:10:15.302Z,101928.22
2023-04-16T13:12:47.085Z,101925.59
2023-04-16T13:15:15.884Z,101926.19
2023-04-16T13:17:43.673Z,101932.22
2023-04-16T13:20:11.850Z,101923.69
2023-04-16T13:22:39.428Z,101932.03
2023-04-16T13:25:08.032Z,101926.53
2023-04-16T13:27:35.061Z,101931.31
2023-04-16T13:30:03.405Z,101929.72
2023-04-16T13:32:31.351Z,101930.72
2023-04-16T13:34:59.539Z,101926.84
2023-04-16T13:37:27.609Z,101919.03
2023-04-16T13:39:54.172Z,101935.28
2023-04-16T13:42:22.231Z,101928.72
2023-04-16T13:44:53.124Z,101938.09
2023-04-16T13:47:20.327Z,101929.84
2023-04-16T13:49:47.586Z,101932.50
2023-04-16T13:52:14.161Z,101922.94
2023-04-16T13:54:41.529Z,101933.38
2023-04-16T13:57:08.486Z,101932.19
2023-04-16T13:59:35.853Z,101928.84
2023-04-16T14:02:06.180Z,101922.72
2023-04-16T14:04:33.080Z,101925.00
2023-04-16T14:07:00.311Z,101924.63
2023-04-16T14:09:27.284Z,101926.31
2023-04-16T14:11:53.803Z,101928.22
2023-04-16T14:14:21.649Z,101926.22
2023-04-16T14:16:49.625Z,101927.53
2023-04-16T14:19:16.351Z,101928.03
2023-04-16T14:21:42.885Z,101925.53
2023-04-16T14:24:09.495Z,101930.91
2023-04-16T14:26:36.026Z,101933.25
2023-04-16T14:29:05.545Z,101931.41
2023-04-16T14:31:33.221Z,101926.41
2023-04-16T14:34:00.093Z,101931.19
2023-04-16T14:36:28.277Z,101935.75
2023-04-16T14:38:55.293Z,101927.97
2023-04-16T14:41:21.955Z,101932.72
2023-04-16T14:43:50.311Z,101936.78
2023-04-16T14:46:19.949Z,101937.56
2023-04-16T14:48:49.442Z,101938.34
2023-04-16T14:51:17.541Z,101931.28
2023-04-16T14:53:45.022Z,101935.84
2023-04-16T14:56:13.617Z,101932.22
2023-04-16T14:58:42.946Z,101943.13
2023-04-16T15:01:09.748Z,101947.09
2023-04-16T15:03:36.611Z,101949.75
2023-04-16T15:06:03.481Z,101943.44
2023-04-16T15:08:30.988Z,101945.91
2023-04-16T15:10:57.824Z,101942.25
2023-04-16T15:13:24.745Z,101955.53
2023-04-16T15:15:51.458Z,101950.69
2023-04-16T15:18:17.994Z,101948.81
2023-04-16T15:20:47.350Z,101947.41
2023-04-16T15:23:14.240Z,101945.72
2023-04-16T15:25:40.796Z,101949.44
2023-04-16T15:28:07.470Z,101952.69
2023-04-16T15:30:34.557Z,101954.84
2023-04-16T15:33:01.607Z,101959.41
2023-04-16T15:35:30.110Z,101953.53
2023-04-16T15:37:58.376Z,101955.88
2023-04-16T15:40:24.922Z,101955.53
2023-04-16T15:42:52.896Z,101954.69
2023-04-16T15:45:21.393Z,101958.63
2023-04-16T15:47:51.298Z,101952.16
2023-04-16T15:50:18.723Z,101958.72
2023-04-16T15:52:48.487Z,101958.47
2023-04-16T15:55:17.670Z,101959.00
2023-04-16T15:57:46.024Z,101961.25
2023-04-16T16:00:19.731Z,101954.94
2023-04-16T16:02:48.390Z,101964.91
2023-04-16T16:05:17.530Z,101970.59
2023-04-16T16:07:46.848Z,101969.19
2023-04-16T16:10:15.037Z,101970.47
2023-04-16T16:12:44.211Z,101971.97
2023-04-16T16:15:12.246Z,101979.69
2023-04-16T16:17:44.476Z,101986.06
2023-04-16T16:20:12.931Z,101984.38
2023-04-16T16:22:56.825Z,101971.78
2023-04-16T16:25:27.523Z,101974.41
2023-04-16T16:27:56.437Z,101977.50
2023-04-16T16:30:23.709Z,101976.28
2023-04-16T16:32:51.669Z,101984.03
2023-04-16T16:35:22.447Z,101981.38
2023-04-16T16:37:48.864Z,101979.22
2023-04-16T16:40:18.472Z,101988.72
2023-04-16T16:42:47.486Z,101993.75
2023-04-16T16:45:18.819Z,101985.91
2023-04-16T16:47:57.867Z,101990.03
2023-04-16T16:50:29.087Z,101983.00
2023-04-16T16:53:09.947Z,101994.59
2023-04-16T16:55:38.743Z,101995.75
2023-04-16T16:58:21.198Z,101985.88
2023-04-16T17:00:50.343Z,101984.50
2023-04-16T17:03:21.145Z,101991.06
2023-04-16T17:05:49.983Z,101986.19
2023-04-16T17:08:18.241Z,101994.72
2023-04-16T17:10:53.012Z,101990.06
2023-04-16T17:13:20.120Z,101993.91
2023-04-16T17:15:47.114Z,101995.41
2023-04-16T17:18:14.065Z,101996.75
2023-04-16T17:20:42.881Z,101998.78
2023-04-16T17:23:10.289Z,102010.13
2023-04-16T17:26:03.788Z,102004.16
2023-04-16T17:28:30.610Z,102009.84
2023-04-16T17:31:02.063Z,102009.16
2023-04-16T17:33:43.803Z,102013.16
2023-04-16T17:36:15.249Z,102018.19
2023-04-16T17:38:48.627Z,102017.00
2023-04-16T17:41:28.625Z,102027.97
2023-04-16T17:44:00.574Z,102027.44
2023-04-16T17:46:27.273Z,102028.41
2023-04-16T17:48:54.234Z,102032.56
2023-04-16T17:51:21.604Z,102036.16
2023-04-16T17:54:17.241Z,102040.53
2023-04-16T17:56:44.537Z,102041.38
2023-04-16T17:59:12.114Z,102037.22
2023-04-16T18:01:45.247Z,102046.94
2023-04-16T18:04:12.274Z,102042.53
2023-04-16T18:06:39.369Z,102048.09
2023-04-16T18:09:06.819Z,102051.59
2023-04-16T18:11:41.782Z,102056.44
2023-04-16T18:14:14.098Z,102055.13
2023-04-16T18:16:49.627Z,102068.84
2023-04-16T18:19:16.624Z,102063.84
2023-04-16T18:21:43.664Z,102071.56
2023-04-16T18:24:11.873Z,102071.25
2023-04-16T18:26:40.968Z,102073.59
2023-04-16T18:29:09.637Z,102074.09
2023-04-16T18:31:36.621Z,102078.94
2023-04-16T18:34:03.672Z,102081.78
2023-04-16T18:36:31.623Z,102070.91
2023-04-16T18:39:02.396Z,102079.28
2023-04-16T18:41:30.071Z,102079.78
2023-04-16T18:43:56.781Z,102083.81
2023-04-16T18:46:24.691Z,102081.44
2023-04-16T18:49:29.670Z,102079.22
2023-04-16T18:51:56.432Z,102101.09
2023-04-16T18:54:24.424Z,102092.84
2023-04-16T18:56:51.591Z,102094.38
2023-04-16T18:59:18.288Z,102103.59
2023-04-16T19:01:53.150Z,102100.91
2023-04-16T19:04:20.168Z,102103.78
2023-04-16T19:07:01.419Z,102101.03
2023-04-16T19:09:28.902Z,102106.63
2023-04-16T19:11:56.159Z,102105.38
2023-04-16T19:14:22.801Z,102108.25
2023-04-16T19:16:49.717Z,102103.78
2023-04-16T19:19:17.358Z,102112.38
2023-04-16T19:21:44.226Z,102115.00
2023-04-16T19:24:11.952Z,102116.19
2023-04-16T19:26:38.542Z,102118.44
2023-04-16T19:29:05.277Z,102117.97
2023-04-16T19:31:32.956Z,102121.00
2023-04-16T19:33:59.814Z,102121.78
2023-04-16T19:36:27.648Z,102127.63
2023-04-16T19:38:54.431Z,102124.13
2023-04-16T19:41:20.960Z,102125.63
2023-04-16T19:43:47.668Z,102124.94
2023-04-16T19:46:15.629Z,102129.75
2023-04-16T19:48:42.488Z,102134.84
2023-04-16T19:51:09.094Z,102132.28
2023-04-16T19:53:36.093Z,102137.84
2023-04-16T19:56:03.002Z,102133.34
2023-04-16T19:58:29.848Z,102139.72
2023-04-16T20:00:57.857Z,102145.91
2023-04-16T20:03:27.298Z,102141.34
2023-04-16T20:05:54.976Z,102146.41
2023-04-16T20:08:23.927Z,102139.84
2023-04-16T20:10:52.982Z,102139.50
2023-04-16T20:13:19.703Z,102146.44
2023-04-16T20:15:47.329Z,102139.22
2023-04-16T20:18:13.795Z,102140.91
2023-04-16T20:20:42.931Z,102144.91
2023-04-16T20:23:09.384Z,102144.97
2023-04-16T20:25:40.976Z,102147.03
2023-04-16T20:28:07.360Z,102140.22
2023-04-16T20:30:38.853Z,102145.69
2023-04-16T20:33:06.875Z,102148.38
2023-04-16T20:35:33.516Z,102145.31
2023-04-16T20:38:00.982Z,102149.78
2023-04-16T20:40:30.452Z,102150.63
2023-04-16T20:43:00.145Z,102143.31
2023-04-16T20:45:32.052Z,102140.03
2023-04-16T20:47:59.715Z,102142.22
2023-04-16T20:50:26.490Z,102146.41
2023-04-16T20:52:53.150Z,102154.31
2023-04-16T20:55:19.856Z,102154.25
2023-04-16T20:57:46.648Z,102157.59
2023-04-16T21:00:13.951Z,102155.00
2023-04-16T21:02:41.675Z,102160.59
2023-04-16T21:05:10.620Z,102153.66
2023-04-16T21:07:37.143Z,102157.72
2023-04-16T21:10:04.181Z,102161.69
2023-04-16T21:12:32.264Z,102158.50
2023-04-16T21:14:59.183Z,102157.72
2023-04-16T21:17:27.046Z,102166.59
2023-04-16T21:19:53.512Z,102157.97
2023-04-16T21:22:20.394Z,102167.75
2023-04-16T21:24:47.101Z,102160.97
2023-04-16T21:27:13.512Z,102165.50
2023-04-16T21:29:41.269Z,102166.31
2023-04-16T21:32:07.694Z,102168.94
2023-04-16T21:34:34.340Z,102160.53
2023-04-16T21:37:00.888Z,102167.75
2023-04-16T21:39:32.170Z,102168.63
2023-04-16T21:41:59.160Z,102168.25
2023-04-16T21:44:25.555Z,102166.91
2023-04-16T21:46:52.302Z,102168.66
2023-04-16T21:49:19.703Z,102168.22
2023-04-16T21:51:46.232Z,102158.00
2023-04-16T21:54:13.337Z,102165.50
2023-04-16T21:56:41.746Z,102169.19
2023-04-16T21:59:08.942Z,102170.59
2023-04-16T22:01:36.670Z,102163.75
2023-04-16T22:04:03.915Z,102165.69
2023-04-16T22:06:31.485Z,102164.66
2023-04-16T22:08:59.688Z,102163.88
2023-04-16T22:11:27.558Z,102163.81
2023-04-16T22:13:57.975Z,102159.72
2023-04-16T22:16:25.823Z,102163.22
2023-04-16T22:18:52.582Z,102166.53
2023-04-16T22:21:19.151Z,102167.31
2023-04-16T22:23:46.677Z,102166.28
2023-04-16T22:26:13.111Z,102168.97
2023-04-16T22:28:40.490Z,102169.19
2023-04-16T22:31:07.087Z,102168.13
2023-04-16T22:33:34.527Z,102166.94
2023-04-16T22:36:01.155Z,102170.44
2023-04-16T22:38:27.576Z,102165.94
2023-04-16T22:40:55.158Z,102175.16
2023-04-16T22:43:22.195Z,102168.16
2023-04-16T22:45:48.832Z,102172.09
2023-04-16T22:48:15.668Z,102175.97
2023-04-16T22:50:45.779Z,102165.88
2023-04-16T22:53:12.165Z,102169.25
2023-04-16T22:55:38.550Z,102167.06
2023-04-16T22:58:04.900Z,102166.25
2023-04-16T23:00:33.501Z,102165.72
2023-04-16T23:03:00.644Z,102162.19
2023-04-16T23:05:27.863Z,102156.84
2023-04-16T23:07:54.344Z,102161.53
2023-04-16T23:10:21.017Z,102165.38
2023-04-16T23:12:47.610Z,102166.06
2023-04-16T23:15:14.475Z,102167.91
2023-04-16T23:17:41.069Z,102168.84
2023-04-16T23:20:07.970Z,102163.88
2023-04-16T23:22:34.396Z,102159.69
2023-04-16T23:25:01.153Z,102159.34
2023-04-16T23:27:28.958Z,102159.88
2023-04-16T23:29:55.720Z,102160.75
2023-04-16T23:32:22.290Z,102165.69
2023-04-16T23:34:48.781Z,102159.13
2023-04-16T23:37:15.515Z,102162.19
2023-04-16T23:39:42.120Z,102156.09
2023-04-16T23:42:08.774Z,102159.50
2023-04-16T23:44:35.638Z,102153.47
2023-04-16T23:47:02.317Z,102154.56
2023-04-16T23:49:28.879Z,102159.94
2023-04-16T23:51:55.430Z,102162.81
2023-04-16T23:54:22.723Z,102162.31
2023-04-16T23:56:49.199Z,102158.94
2023-04-16T23:59:16.826Z,102156.91
